• Join FlightAware (Why Join?)
  • Login
  • US Flag 
09:30AM EDT


 

Airport Tracker/Info


-or-


 

Live Flight TrackerFlight Track Log ✈ TRS412 ✈ 2013年 05月 06日 ✈ KMDW - KATL

Flight Track Log - Related Links

Times and Time Zones

All times are in EDT time to prevent confusion due to time zone crossing. See the TRS412 flight status page for this flight to view local times or setup timezone preferences in your user account.

Time Position Orientation Groundspeed Altitude Reporting Facility
EDT Latitude Longitude Course Direction KTS MPH feet Rate Location/Type
06:26AM 41.7833 -87.7000 185° South 202 232 3,500  Level Chicago TRACON
06:28AM 41.6561 -87.7564 198° South 274 315 8,400 2,760 Climbing Chicago Center
06:29AM 41.5783 -87.7942 200° South 294 338 11,700 2,400 Climbing Chicago Center
06:30AM 41.4886 -87.8025 184° South 335 386 13,300 1,980 Climbing Chicago Center
06:31AM 41.3732 -87.8678 185° South  Level FlightAware Approximate
06:31AM 41.3869 -87.7806 171° South 361 415 15,700  Level Chicago Center
06:32AM 41.2811 -87.7567 170° South 376 433 18,200 2,280 Climbing Chicago Center
06:33AM 41.1717 -87.7322 170° South 389 448 20,300 1,980 Climbing Chicago Center
06:34AM 41.0600 -87.7069 170° South 398 458 22,300 1,920 Climbing Chicago Center
06:35AM 40.9447 -87.6803 170° South 416 479 24,300 1,680 Climbing Chicago Center
06:36AM 40.8269 -87.6544 171° South 426 490 25,800 1,440 Climbing Chicago Center
06:37AM 40.7078 -87.6269 170° South 433 498 27,300 1,680 Climbing Chicago Center
06:38AM 40.5883 -87.6000 170° South 438 504 29,200 1,620 Climbing Chicago Center
06:39AM 40.4689 -87.5744 171° South 435 501 30,600 1,380 Climbing Chicago Center
06:40AM 40.3500 -87.5469 170° South 437 503 32,000 1,320 Climbing Chicago Center
06:41AM 40.2303 -87.5222 171° South 437 503 33,300 1,260 Climbing Chicago Center
06:42AM 40.0964 -87.4942 171° South 437 503 34,600 840 Climbing Chicago Center
06:43AM 39.9758 -87.4700 171° South 434 499 35,000 180 Climbing Indianapolis Center
06:44AM 39.8592 -87.4431 170° South 429 494 35,000 240 Level Indianapolis Center
06:45AM 39.7419 -87.4181 171° South 430 495 35,600 780 Climbing Indianapolis Center
06:46AM 39.6236 -87.3925 171° South 434 499 36,600 660 Climbing Indianapolis Center
06:47AM 39.5067 -87.3683 171° South 431 496 37,000 180 Climbing Indianapolis Center
06:48AM 39.3892 -87.3433 171° South 430 495 37,000  Level Indianapolis Center
06:49AM 39.2706 -87.3186 171° South 433 498 37,000  Level Indianapolis Center
06:50AM 39.1514 -87.2928 170° South 437 503 37,000  Level Indianapolis Center
06:51AM 39.0183 -87.2650 171° South 437 503 37,000  Level Indianapolis Center
06:52AM 38.8989 -87.2403 171° South 434 499 37,000  Level Indianapolis Center
06:53AM 38.7772 -87.2147 171° South 438 504 37,000  Level Indianapolis Center
06:54AM 38.6564 -87.1900 171° South 438 504 37,000  Level Indianapolis Center
06:55AM 38.5353 -87.1653 171° South 440 506 37,000  Level Indianapolis Center
06:56AM 38.4081 -87.1383 171° South 442 509 37,000  Level Indianapolis Center
06:57AM 38.2881 -87.1133 171° South 441 507 37,000  Level Indianapolis Center
06:58AM 38.1539 -87.0864 171° South 447 514 37,000  Level Indianapolis Center
06:59AM 38.0308 -87.0614 171° South 447 514 37,000  Level Indianapolis Center
07:00AM 37.9056 -87.0358 171° South 452 520 37,000  Level Indianapolis Center
07:01AM 37.7819 -87.0106 171° South 450 518 37,000  Level Indianapolis Center
07:02AM 37.6586 -86.9853 171° South 445 512 37,000  Level Indianapolis Center
07:03AM 37.5836 -86.9733 173° South 452 520 37,000  Level Memphis Center
07:04AM 37.4622 -86.9500 171° South 452 520 37,000  Level Memphis Center
07:05AM 37.3386 -86.9239 170° South 447 514 37,000  Level Memphis Center
07:06AM 37.2044 -86.8986 171° South 447 514 37,000  Level Memphis Center
07:07AM 37.0831 -86.8725 170° South 447 514 37,000  Level Memphis Center
07:08AM 36.9614 -86.8467 170° South 447 514 37,000  Level Memphis Center
07:09AM 36.8378 -86.8211 171° South 452 520 37,000  Level Memphis Center
07:10AM 36.7078 -86.7958 171° South 457 526 37,000  Level Memphis Center
07:11AM 36.5797 -86.7703 171° South 462 532 37,000  Level Memphis Center
07:12AM 36.4561 -86.7422 170° South 467 537 37,000  Level Memphis Center
07:13AM 36.3367 -86.7244 173° South 474 545 37,000 -360 Level Memphis Center
07:14AM 36.2089 -86.6967 170° South 474 545 36,300 -1,260 Descending Memphis Center
07:15AM 36.0800 -86.6433 162° South 455 524 34,500 -1,440 Descending Memphis Center
07:16AM 35.9750 -86.5533 145° Southeast 447 514 33,500 -540 Descending Memphis Center
07:18AM 35.7833 -86.3964 146° Southeast 470 541 33,000 -180 Descending Atlanta Center
07:19AM 35.6744 -86.3114 148° Southeast 470 541 33,000  Level Atlanta Center
07:20AM 35.5697 -86.2217 145° Southeast 470 541 33,000  Level Atlanta Center
07:21AM 35.4606 -86.1397 149° Southeast 463 533 33,000 -360 Level Atlanta Center
07:22AM 35.3533 -86.0506 146° Southeast 463 533 32,400 -600 Descending Atlanta Center
07:23AM 35.2544 -85.9717 147° Southeast 470 541 31,800 -720 Descending Atlanta Center
07:24AM 35.1328 -85.8800 148° Southeast 477 549 31,000 -840 Descending Atlanta Center
07:25AM 35.0194 -85.7889 147° Southeast 477 549 30,200 -780 Descending Atlanta Center
07:26AM 34.9100 -85.7028 147° Southeast 477 549 29,500 -780 Descending Atlanta Center
07:27AM 34.7986 -85.6147 147° Southeast 477 549 28,700 -780 Descending Atlanta Center
07:28AM 34.6869 -85.5292 148° Southeast 477 549 28,000 -780 Descending Atlanta Center
07:29AM 34.5753 -85.4414 147° Southeast 477 549 27,200 -900 Descending Atlanta Center
07:30AM 34.4614 -85.3539 148° Southeast 477 549 26,200 -1,920 Descending Atlanta Center
07:31AM 34.3661 -85.2769 146° Southeast 471 542 23,500 -3,000 Descending Atlanta Center
07:32AM 34.2583 -85.1975 149° Southeast 455 524 20,200 -3,300 Descending Atlanta Center
07:33AM 34.1611 -85.1158 145° Southeast 441 507 16,900 -3,120 Descending Atlanta Center
07:34AM 34.0847 -85.0194 134° Southeast 409 471 14,100 -1,800 Descending Atlanta Center
07:35AM 34.0122 -84.9283 134° Southeast 378 435 13,400 -1,080 Descending Atlanta Center
07:36AM 33.9378 -84.8325 133° Southeast 365 420 12,000 -780 Descending Atlanta Center
07:37AM 33.8694 -84.7469 134° Southeast 365 420 11,900 60 Descending Atlanta Center
07:37AM 33.8500 -84.7167 128° Southeast 362 417 12,100 120 Climbing Atlanta TRACON
07:38AM 33.7833 -84.6333 134° Southeast 361 415 12,100 -360 Level Atlanta TRACON
07:39AM 33.7333 -84.5333 121° Southeast 310 357 11,400 -1,260 Descending Atlanta TRACON
07:40AM 33.7333 -84.4333 90° East 307 353 9,600 -1,740 Descending Atlanta TRACON
07:41AM 33.7333 -84.3333 90° East 293 337 8,000 -1,560 Descending Atlanta TRACON
07:42AM 33.7333 -84.2500 90° East 276 318 6,500 -1,200 Descending Atlanta TRACON
07:43AM 33.7333 -84.1667 90° East 275 316 5,700 -720 Descending Atlanta TRACON
07:44AM 33.7333 -84.0667 90° East 267 307 5,100 -360 Descending Atlanta TRACON
07:45AM 33.7000 -84.0167 129° Southeast 241 277 5,100  Level Atlanta TRACON
07:46AM 33.6500 -84.0333 196° South 220 253 5,100  Level Atlanta TRACON
07:47AM 33.6500 -84.1000 270° West 202 232 5,100  Level Atlanta TRACON
07:48AM 33.6500 -84.1667 270° West 200 230 5,100 -540 Level Atlanta TRACON
07:49AM 33.6500 -84.2167 270° West 199 229 4,100 -1,020 Descending Atlanta TRACON
07:50AM 33.6500 -84.2833 270° West 195 224 3,100 -960 Descending Atlanta TRACON
07:51AM 33.6500 -84.3333 270° West 131 151 2,200 -780 Descending Atlanta TRACON
07:52AM 33.6500 -84.3833 270° West 126 145 1,600 -600 Descending Atlanta TRACON
07:54AM 33.6333 -84.4167 North  Level FlightAware Approximate
08:01AM 33.6367 -84.4279 North  Level Estimated
08:02AM 33.6367 -84.4279 North  Level Estimated